• Join FlightAware (Why Join?)
  • Login
  • US Flag 
11:16PM EDT


 

Airport Tracker/Info


-or-


 

Live Flight TrackerFlight Track Log ✈ UAL4376 ✈ 18-Oct-2013 ✈ KXNA - KIAH

Flight Track Log - Related Links

Times and Time Zones

All times are in EDT time to prevent confusion due to time zone crossing. See the UAL4376 flight status page for this flight to view local times or setup timezone preferences in your user account.

Time Position Orientation Groundspeed Altitude Reporting Facility
EDT Latitude Longitude Course Direction KTS MPH feet Rate Location/Type
02:26PM 35.9174 -94.3719 244° Southwest  Level Estimated
02:27PM 35.9223 -94.4853 273° West  Level FlightAware Approximate
02:27PM 36.1108 -94.5575 250° West 269 310 10,400  Level Memphis Center
02:28PM 35.8311 -94.4994 241° Southwest  Level Estimated
02:28PM 36.0806 -94.6511 248° West 287 330 11,900  Level Memphis Center
02:29PM 35.8361 -94.6126 273° West  Level FlightAware Approximate
02:29PM 36.0261 -94.8297 249° West 313 360 14,400  Level Fort Worth Center
02:30PM 35.7446 -94.6248 246° West  Level Estimated
02:30PM 35.9967 -94.9308 250° West 313 360 15,700  Level Fort Worth Center
02:31PM 35.9633 -95.0342 248° West 313 360 16,900 1,140 Climbing Fort Worth Center
02:32PM 35.9297 -95.1353 248° West 313 360 18,000 1,200 Climbing Fort Worth Center
02:33PM 35.8983 -95.2386 249° West 313 360 19,400 1,260 Climbing Fort Worth Center
02:34PM 35.8392 -95.3194 228° Southwest 318 366 20,600 1,080 Climbing Fort Worth Center
02:35PM 35.7567 -95.3675 205° Southwest 312 359 21,600 1,080 Climbing Fort Worth Center
02:36PM 35.6697 -95.4181 205° Southwest 330 380 22,800 1,260 Climbing Fort Worth Center
02:37PM 35.5808 -95.4664 204° Southwest 340 391 24,200 1,440 Climbing Fort Worth Center
02:38PM 35.4919 -95.5167 205° Southwest 340 391 25,700 1,320 Climbing Fort Worth Center
02:39PM 35.4094 -95.5644 205° Southwest 335 386 26,900 1,140 Climbing Fort Worth Center
02:40PM 35.3267 -95.6094 204° Southwest 335 386 28,000 1,140 Climbing Fort Worth Center
02:41PM 35.2458 -95.6519 203° Southwest 335 386 29,200 1,200 Climbing Fort Worth Center
02:42PM 35.1650 -95.6942 203° Southwest 330 380 30,500 1,320 Climbing Fort Worth Center
02:43PM 35.0886 -95.7389 206° Southwest 320 368 31,900 720 Climbing Fort Worth Center
02:44PM 35.0056 -95.7836 204° Southwest 314 361 32,000  Climbing Fort Worth Center
02:45PM 34.9144 -95.8336 204° Southwest 332 382 32,000  Level Fort Worth Center
02:46PM 34.8192 -95.8808 202° Southwest 361 415 32,000  Level Fort Worth Center
02:47PM 34.7239 -95.9306 203° Southwest 374 430 32,000  Level Fort Worth Center
02:48PM 34.6306 -95.9825 205° Southwest 374 430 32,000  Level Fort Worth Center
02:49PM 34.5331 -96.0372 205° Southwest 374 430 32,000  Level Fort Worth Center
02:50PM 34.4378 -96.0889 204° Southwest 379 436 32,000  Level Fort Worth Center
02:51PM 34.3400 -96.1408 204° Southwest 379 436 32,000  Level Fort Worth Center
02:52PM 34.2425 -96.1950 205° Southwest 379 436 32,000  Level Fort Worth Center
02:53PM 34.1469 -96.2442 203° Southwest 379 436 32,000  Level Fort Worth Center
02:54PM 34.0661 -96.2878 204° Southwest 374 430 32,000  Level Fort Worth Center
02:55PM 33.9706 -96.3417 205° Southwest 374 430 32,000  Level Fort Worth Center
02:56PM 33.8728 -96.3878 201° Southwest 379 436 32,000  Level Fort Worth Center
02:57PM 33.7753 -96.4389 204° Southwest 379 436 32,000  Level Fort Worth Center
02:58PM 33.6817 -96.4925 205° Southwest 379 436 32,000  Level Fort Worth Center
02:59PM 33.5839 -96.5433 203° Southwest 379 436 32,000  Level Fort Worth Center
03:00PM 33.4883 -96.5939 204° Southwest 379 436 32,000  Level Fort Worth Center
03:01PM 33.3906 -96.6422 202° Southwest 379 436 32,000  Level Fort Worth Center
03:02PM 33.2861 -96.6656 191° South 379 436 32,000  Level Fort Worth Center
03:03PM 33.1733 -96.6564 176° South 385 443 32,000  Level Fort Worth Center
03:04PM 33.0606 -96.6450 175° South 397 457 32,000  Level Fort Worth Center
03:05PM 32.9375 -96.6361 177° South 404 465 32,000  Level Fort Worth Center
03:06PM 32.8225 -96.6247 175° South 404 465 32,000  Level Fort Worth Center
03:07PM 32.7097 -96.6158 176° South 404 465 32,000  Level Fort Worth Center
03:08PM 32.5969 -96.6094 177° South 404 465 32,000  Level Fort Worth Center
03:09PM 32.4842 -96.5958 174° South 404 465 32,000  Level Fort Worth Center
03:10PM 32.3714 -96.5894 177° South 404 465 32,000  Level Fort Worth Center
03:11PM 32.2586 -96.5806 176° South 404 465 32,000  Level Fort Worth Center
03:12PM 32.1458 -96.5694 175° South 404 465 32,000  Level Fort Worth Center
03:13PM 32.0350 -96.5606 176° South 404 465 32,000  Level Fort Worth Center
03:16PM 31.7656 -96.5350 175° South 403 464 32,000 -480 Level Houston Center
03:17PM 31.6511 -96.5244 176° South 406 467 30,500 -1,500 Descending Houston Center
03:18PM 31.5386 -96.5153 176° South 402 463 29,000 -1,740 Descending Houston Center
03:19PM 31.4242 -96.4767 164° South 421 484 27,000 -1,980 Descending Houston Center
03:20PM 31.3094 -96.4172 156° South 444 511 25,000 -1,500 Descending Houston Center
03:21PM 31.1769 -96.3306 151° Southeast 460 529 24,000 -1,020 Descending Houston Center
03:22PM 31.0661 -96.2592 151° Southeast 455 524 22,900 -1,560 Descending Houston Center
03:23PM 30.9592 -96.1892 151° Southeast 443 510 20,800 -2,160 Descending Houston Center
03:24PM 30.8569 -96.1222 151° Southeast 426 490 18,500 -2,400 Descending Houston Center
03:25PM 30.7583 -96.0583 151° Southeast 405 466 15,900 -2,700 Descending Houston Center
03:26PM 30.6975 -96.0192 151° Southeast 400 460 14,400 -2,280 Descending Houston Center
03:26PM 30.6664 -95.9994 151° Southeast 401 461 13,600 -2,520 Descending Houston Center
03:27PM 30.6089 -95.9639 152° Southeast 391 450 12,100 -2,820 Descending Houston Center
03:27PM 30.5558 -95.9281 150° Southeast 382 440 10,700 -1,980 Descending Houston Center
03:28PM 30.5200 -95.9061 152° Southeast 361 415 10,100 -720 Descending Houston Center
03:28PM 30.4750 -95.8761 150° Southeast 340 391 10,000 -180 Descending Houston Center
03:29PM 30.4358 -95.8553 155° Southeast 283 326 9,900 -600 Descending Houston Center
03:29PM 30.4025 -95.8550 180° South 284 327 9,400 -1,020 Descending Houston Center
03:30PM 30.3581 -95.8547 180° South 267 307 8,900 -1,020 Descending Houston Center
03:30PM 30.3283 -95.8547 180° South 265 305 8,400 -900 Descending Houston Center
03:31PM 30.2825 -95.8561 181° South 265 305 8,000 -420 Descending Houston Center
03:31PM 30.2539 -95.8553 179° South 267 307 8,000  Level Houston Center
03:32PM 30.2092 -95.8575 182° South 261 300 8,000  Level Houston Center
03:33PM 30.1686 -95.8578 180° South 260 299 8,000  Level Houston Center
03:33PM 30.1422 -95.8603 185° South 259 298 8,000 -1,020 Level Houston Center
03:34PM 30.1028 -95.8325 149° Southeast 270 311 7,000 -1,680 Descending Houston Center
03:34PM 30.0758 -95.8197 158° South 266 306 6,300 -1,380 Descending Houston Center
03:35PM 30.0386 -95.7936 149° Southeast 260 299 5,600 -1,080 Descending Houston Center
03:35PM 30.0181 -95.7831 156° South 218 251 5,200 -600 Descending Houston Center
03:36PM 29.9961 -95.7494 127° Southeast 229 264 5,000 -240 Descending Houston Center
03:36PM 29.9939 -95.7231 96° East 218 251 5,000  Level Houston Center
03:37PM 29.9933 -95.6828 91° East 211 243 5,000  Level Houston Center
03:37PM 29.9919 -95.6536 93° East 201 231 5,000 -420 Level Houston Center
03:38PM 29.9933 -95.6203 87° East 202 232 4,600 -840 Descending Houston Center
03:38PM 29.9931 -95.5978 91° East 175 201 4,200 -1,080 Descending Houston Center
03:39PM 29.9936 -95.5572 89° East 171 197 3,500 -900 Descending Houston Center
03:39PM 29.9925 -95.5450 96° East 158 182 3,300 -780 Descending Houston Center
03:40PM 29.9939 -95.5083 87° East 160 184 2,700 -900 Descending Houston Center
03:40PM 29.9919 -95.4919 98° East 155 178 2,400 -900 Descending Houston Center
03:41PM 29.9933 -95.4578 87° East 157 181 1,800 -840 Descending Houston Center
03:41PM 29.9917 -95.4414 97° East 159 183 1,600 -720 Descending Houston Center
03:42PM 29.9936 -95.4092 86° East 155 178 1,100 -840 Descending Houston Center
03:42PM 29.9919 -95.3978 100° East 125 144 800 -720 Descending Houston Center
03:43PM 29.9944 -95.3689 84° East 142 163 400 -540 Descending Houston Center